Time;durP1;ratioP1;P1;durP2;ratioP2;P2;SDS_P1;SDS_P2;PMS_P1;PMS_P2;Temp;Humidity;BMP_temperature;BMP_pressure;BME280_temperature;BME280_humidity;BME280_pressure;Samples;Min_cycle;Max_cycle;Signal;HPM_P1;HPM_P2
2022/02/12 00:00:30;;;;;;;;;;;;;;;;;;5081825;28;19909;-67
2022/02/12 00:02:56;;;;;;;;;;;;;;;;;;5088185;28;19912;-67
2022/02/12 00:05:24;;;;;;;;;;;;;;;;;;5088219;28;19907;-67
2022/02/12 00:07:49;;;;;;;;;;;;;;;;;;5085374;28;19908;-67
2022/02/12 00:10:15;;;;;;;;;;;;;;;;;;5084467;28;19931;-67
2022/02/12 00:12:41;;;;;;;;;;;;;;;;;;5085502;28;19912;-67
2022/02/12 00:15:07;;;;;;;;;;;;;;;;;;5087656;28;19920;-67
2022/02/12 00:17:33;;;;;;;;;;;;;;;;;;5091383;28;19904;-67
2022/02/12 00:19:59;;;;;;;;;;;;;;;;;;5085093;28;19908;-67
2022/02/12 00:22:25;;;;;;;;;;;;;;;;;;5084761;28;20011;-67
2022/02/12 00:24:51;;;;;;;;;;;;;;;;;;5085035;28;19912;-67
2022/02/12 00:27:17;;;;;;;;;;;;;;;;;;5085109;28;19916;-67
2022/02/12 00:29:42;;;;;;;;;;;;;;;;;;5081431;28;19951;-67
2022/02/12 00:32:08;;;;;;;;;;;;;;;;;;5085420;28;19968;-67
2022/02/12 00:34:34;;;;;;;;;;;;;;;;;;5084672;28;19947;-67
2022/02/12 00:37:00;;;;;;;;;;;;;;;;;;5084792;28;20349;-67
2022/02/12 00:39:26;;;;;;;;;;;;;;;;;;5085227;28;19943;-67
2022/02/12 00:41:52;;;;;;;;;;;;;;;;;;5090699;28;19947;-67
2022/02/12 00:44:18;;;;;;;;;;;;;;;;;;5087669;28;19904;-67
2022/02/12 00:46:44;;;;;;;;;;;;;;;;;;5084828;28;19966;-68
2022/02/12 00:49:10;;;;;;;;;;;;;;;;;;5084578;28;19908;-68
2022/02/12 00:51:36;;;;;;;;;;;;;;;;;;5084614;28;19999;-68
2022/02/12 00:54:02;;;;;;;;;;;;;;;;;;5088648;28;19904;-67
2022/02/12 00:56:28;;;;;;;;;;;;;;;;;;5089562;28;19911;-67
2022/02/12 00:58:54;;;;;;;;;;;;;;;;;;5084803;28;20476;-67
2022/02/12 01:01:20;;;;;;;;;;;;;;;;;;5084738;28;19991;-67
2022/02/12 01:03:46;;;;;;;;;;;;;;;;;;5083818;28;20342;-67
2022/02/12 01:06:12;;;;;;;;;;;;;;;;;;5085676;28;20058;-67
2022/02/12 01:08:38;;;;;;;;;;;;;;;;;;5091973;28;19904;-67
2022/02/12 01:11:04;;;;;;;;;;;;;;;;;;5084292;28;19908;-67
2022/02/12 01:13:30;;;;;;;;;;;;;;;;;;5083297;28;19908;-67
2022/02/12 01:15:56;;;;;;;;;;;;;;;;;;5082717;28;19991;-67
2022/02/12 01:18:21;;;;;;;;;;;;;;;;;;5084207;28;19975;-66
2022/02/12 01:20:47;;;;;;;;;;;;;;;;;;5090727;28;19904;-66
2022/02/12 01:23:13;;;;;;;;;;;;;;;;;;5085806;28;20390;-66
2022/02/12 01:25:39;;;;;;;;;;;;;;;;;;5084242;28;19912;-67
2022/02/12 01:28:05;;;;;;;;;;;;;;;;;;5083993;28;19915;-67
2022/02/12 01:30:31;;;;;;;;;;;;;;;;;;5072368;28;19966;-67
2022/02/12 01:32:57;;;;;;;;;;;;;;;;;;5089088;28;19992;-67
2022/02/12 01:35:24;;;;;;;;;;;;;;;;;;5086727;28;19947;-67
2022/02/12 01:37:50;;;;;;;;;;;;;;;;;;5084134;28;19907;-66
2022/02/12 01:40:16;;;;;;;;;;;;;;;;;;5084248;28;19907;-66
2022/02/12 01:42:42;;;;;;;;;;;;;;;;;;5083779;28;19908;-67
2022/02/12 01:45:08;;;;;;;;;;;;;;;;;;5085570;28;20016;-66
2022/02/12 01:47:34;;;;;;;;;;;;;;;;;;5090080;28;19908;-66
2022/02/12 01:50:00;;;;;;;;;;;;;;;;;;5083833;28;20306;-67
2022/02/12 01:52:27;;;;;;;;;;;;;;;;;;5083720;28;19990;-66
2022/02/12 01:54:53;;;;;;;;;;;;;;;;;;5083193;28;19915;-66
2022/02/12 01:57:19;;;;;;;;;;;;;;;;;;5083902;28;19908;-67
2022/02/12 01:59:44;;;;;;;;;;;;;;;;;;5089764;28;19915;-66
2022/02/12 02:02:10;;;;;;;;;;;;;;;;;;5083945;28;19915;-66
2022/02/12 02:04:36;;;;;;;;;;;;;;;;;;5083127;28;20444;-66
2022/02/12 02:07:02;;;;;;;;;;;;;;;;;;5084796;28;19916;-65
2022/02/12 02:09:28;;;;;;;;;;;;;;;;;;5083262;28;19905;-66
2022/02/12 02:11:54;;;;;;;;;;;;;;;;;;5088811;28;20061;-66
2022/02/12 02:14:20;;;;;;;;;;;;;;;;;;5086129;28;19907;-66
2022/02/12 02:16:46;;;;;;;;;;;;;;;;;;5083268;28;20301;-66
2022/02/12 02:19:13;;;;;;;;;;;;;;;;;;5083388;28;19912;-66
2022/02/12 02:21:39;;;;;;;;;;;;;;;;;;5082233;28;19916;-66
2022/02/12 02:24:05;;;;;;;;;;;;;;;;;;5086612;28;19924;-65
2022/02/12 02:26:30;;;;;;;;;;;;;;;;;;5088013;28;20286;-66
2022/02/12 02:28:56;;;;;;;;;;;;;;;;;;5077753;28;19913;-66
2022/02/12 02:31:22;;;;;;;;;;;;;;;;;;5076001;28;19974;-66
2022/02/12 02:33:48;;;;;;;;;;;;;;;;;;5082355;28;20230;-65
2022/02/12 02:36:16;;;;;;;;;;;;;;;;;;5083622;28;19920;-66
2022/02/12 02:38:41;;;;;;;;;;;;;;;;;;5082527;28;19908;-66
2022/02/12 02:41:07;;;;;;;;;;;;;;;;;;5083111;28;19915;-66
2022/02/12 02:43:33;;;;;;;;;;;;;;;;;;5082639;28;19908;-65
2022/02/12 02:45:59;;;;;;;;;;;;;;;;;;5082369;28;19920;-66
2022/02/12 02:48:25;;;;;;;;;;;;;;;;;;5082714;28;20286;-66
2022/02/12 02:56:20;;;;;;;;;;;;;;;;;;5086998;28;19915;-66
2022/02/12 02:58:46;;;;;;;;;;;;;;;;;;5082710;28;19908;-66
2022/02/12 03:01:12;;;;;;;;;;;;;;;;;;5082558;28;19908;-66
2022/02/12 03:03:38;;;;;;;;;;;;;;;;;;5082674;28;19911;-65
2022/02/12 03:06:04;;;;;;;;;;;;;;;;;;5086071;28;19912;-66
2022/02/12 03:08:30;;;;;;;;;;;;;;;;;;5087505;28;19904;-66
2022/02/12 03:10:56;;;;;;;;;;;;;;;;;;5082334;28;19911;-65
2022/02/12 03:13:22;;;;;;;;;;;;;;;;;;5082012;28;19943;-66
2022/02/12 03:15:48;;;;;;;;;;;;;;;;;;5082536;28;19915;-66
2022/02/12 03:18:14;;;;;;;;;;;;;;;;;;5082471;28;19908;-66
2022/02/12 03:20:40;;;;;;;;;;;;;;;;;;5090250;28;19955;-65
2022/02/12 03:23:06;;;;;;;;;;;;;;;;;;5082244;28;19922;-65
2022/02/12 03:25:31;;;;;;;;;;;;;;;;;;5082593;28;20383;-66
2022/02/12 03:27:57;;;;;;;;;;;;;;;;;;5082092;28;19915;-65
2022/02/12 03:30:23;;;;;;;;;;;;;;;;;;5070013;28;19909;-65
2022/02/12 03:32:49;;;;;;;;;;;;;;;;;;5088823;28;19904;-65
2022/02/12 03:35:15;;;;;;;;;;;;;;;;;;5084058;28;20383;-66
2022/02/12 03:37:41;;;;;;;;;;;;;;;;;;5083055;28;19911;-66
2022/02/12 03:40:08;;;;;;;;;;;;;;;;;;5086702;28;19908;-65
2022/02/12 03:42:34;;;;;;;;;;;;;;;;;;5085663;28;20419;-65
2022/02/12 03:45:00;;;;;;;;;;;;;;;;;;5090785;28;20041;-66
2022/02/12 03:47:26;;;;;;;;;;;;;;;;;;5090228;28;20374;-66
2022/02/12 03:49:52;;;;;;;;;;;;;;;;;;5086486;28;19947;-66
2022/02/12 03:52:18;;;;;;;;;;;;;;;;;;5085686;28;19987;-66
2022/02/12 03:54:44;;;;;;;;;;;;;;;;;;5086035;28;19915;-66
2022/02/12 03:57:10;;;;;;;;;;;;;;;;;;5087449;28;20351;-66
2022/02/12 03:59:35;;;;;;;;;;;;;;;;;;5093086;28;19948;-66
2022/02/12 04:02:03;;;;;;;;;;;;;;;;;;5084306;28;19915;-66
2022/02/12 04:04:29;;;;;;;;;;;;;;;;;;5085927;28;19908;-66
2022/02/12 04:06:55;;;;;;;;;;;;;;;;;;5085770;28;19920;-66
2022/02/12 04:09:21;;;;;;;;;;;;;;;;;;5085745;28;19947;-66
2022/02/12 04:11:46;;;;;;;;;;;;;;;;;;5092805;28;19994;-66
2022/02/12 04:14:12;;;;;;;;;;;;;;;;;;5090272;28;19908;-66
2022/02/12 04:16:38;;;;;;;;;;;;;;;;;;5080920;28;19915;-65
2022/02/12 04:19:04;;;;;;;;;;;;;;;;;;5085918;28;19907;-67
2022/02/12 04:21:30;;;;;;;;;;;;;;;;;;5085008;28;19965;-66
2022/02/12 04:23:56;;;;;;;;;;;;;;;;;;5090538;28;19955;-66
2022/02/12 04:26:22;;;;;;;;;;;;;;;;;;5090827;28;20265;-66
2022/02/12 04:28:49;;;;;;;;;;;;;;;;;;5078188;28;19914;-65
2022/02/12 04:31:15;;;;;;;;;;;;;;;;;;5089060;28;19944;-67
2022/02/12 04:33:41;;;;;;;;;;;;;;;;;;5072266;28;19977;-67
2022/02/12 04:36:06;;;;;;;;;;;;;;;;;;5088183;28;19912;-65
2022/02/12 04:38:32;;;;;;;;;;;;;;;;;;5090947;28;20298;-65
2022/02/12 04:41:00;;;;;;;;;;;;;;;;;;5085498;28;19908;-66
2022/02/12 04:43:26;;;;;;;;;;;;;;;;;;5085358;28;19908;-65
2022/02/12 04:45:52;;;;;;;;;;;;;;;;;;5084867;28;19916;-66
2022/02/12 04:48:18;;;;;;;;;;;;;;;;;;5084687;28;20257;-66
2022/02/12 04:50:44;;;;;;;;;;;;;;;;;;5093165;28;19926;-66
2022/02/12 04:53:09;;;;;;;;;;;;;;;;;;5085190;28;20434;-66
2022/02/12 04:55:36;;;;;;;;;;;;;;;;;;5084214;28;19908;-66
2022/02/12 04:58:02;;;;;;;;;;;;;;;;;;5085227;28;19915;-66
2022/02/12 05:00:28;;;;;;;;;;;;;;;;;;5085082;28;20350;-66
2022/02/12 05:02:54;;;;;;;;;;;;;;;;;;5089804;28;19908;-66
2022/02/12 05:05:20;;;;;;;;;;;;;;;;;;5087505;28;19904;-66
2022/02/12 05:07:46;;;;;;;;;;;;;;;;;;5084834;28;19912;-65
2022/02/12 05:10:12;;;;;;;;;;;;;;;;;;5085771;28;19943;-66
2022/02/12 05:12:38;;;;;;;;;;;;;;;;;;5084660;28;19912;-65
2022/02/12 05:15:04;;;;;;;;;;;;;;;;;;5088170;28;20616;-65
2022/02/12 05:17:29;;;;;;;;;;;;;;;;;;5088826;28;20006;-65
2022/02/12 05:19:55;;;;;;;;;;;;;;;;;;5084445;28;19908;-66
2022/02/12 05:22:21;;;;;;;;;;;;;;;;;;5084258;28;19924;-65
2022/02/12 05:24:47;;;;;;;;;;;;;;;;;;5084148;28;19960;-67
2022/02/12 05:27:13;;;;;;;;;;;;;;;;;;5085059;28;19969;-67
2022/02/12 05:29:39;;;;;;;;;;;;;;;;;;5080131;28;19904;-67
2022/02/12 05:32:05;;;;;;;;;;;;;;;;;;5083742;28;20385;-66
2022/02/12 05:34:30;;;;;;;;;;;;;;;;;;5084277;28;19919;-66
2022/02/12 05:36:56;;;;;;;;;;;;;;;;;;5083962;28;19911;-67
2022/02/12 05:39:22;;;;;;;;;;;;;;;;;;5083605;28;19913;-67
2022/02/12 05:41:48;;;;;;;;;;;;;;;;;;5091154;28;20351;-67
2022/02/12 05:44:14;;;;;;;;;;;;;;;;;;5085454;28;19904;-66
2022/02/12 05:46:40;;;;;;;;;;;;;;;;;;5083547;28;20331;-66
2022/02/12 05:49:07;;;;;;;;;;;;;;;;;;5083421;28;19944;-66
2022/02/12 05:51:33;;;;;;;;;;;;;;;;;;5084240;28;19915;-66
2022/02/12 05:53:59;;;;;;;;;;;;;;;;;;5088500;28;19987;-65
2022/02/12 05:56:25;;;;;;;;;;;;;;;;;;5087016;28;20645;-63
2022/02/12 05:58:51;;;;;;;;;;;;;;;;;;5083219;28;20010;-63
2022/02/12 06:01:17;;;;;;;;;;;;;;;;;;5083193;28;19969;-66
2022/02/12 06:03:43;;;;;;;;;;;;;;;;;;5083839;28;19969;-68
2022/02/12 06:06:09;;;;;;;;;;;;;;;;;;5084601;28;20384;-64
2022/02/12 06:08:35;;;;;;;;;;;;;;;;;;5089667;28;19910;-63
2022/02/12 06:11:04;;;;;;;;;;;;;;;;;;5083583;28;19908;-65
2022/02/12 06:13:30;;;;;;;;;;;;;;;;;;5083735;28;19904;-67
2022/02/12 06:15:55;;;;;;;;;;;;;;;;;;5082972;28;20378;-65
2022/02/12 06:18:22;;;;;;;;;;;;;;;;;;5083538;28;19988;-67
2022/02/12 06:20:47;;;;;;;;;;;;;;;;;;5089853;28;19908;-65
2022/02/12 06:23:13;;;;;;;;;;;;;;;;;;5084301;28;19920;-65
2022/02/12 06:25:39;;;;;;;;;;;;;;;;;;5083146;28;20287;-64
2022/02/12 06:28:05;;;;;;;;;;;;;;;;;;5082850;28;19908;-64
2022/02/12 06:30:31;;;;;;;;;;;;;;;;;;5071327;28;19908;-64
2022/02/12 06:33:00;;;;;;;;;;;;;;;;;;5087538;28;20281;-65
2022/02/12 06:35:26;;;;;;;;;;;;;;;;;;5073614;28;19908;-65
2022/02/12 06:37:52;;;;;;;;;;;;;;;;;;5080402;28;19912;-64
2022/02/12 06:40:18;;;;;;;;;;;;;;;;;;5076834;28;19913;-63
2022/02/12 06:42:44;;;;;;;;;;;;;;;;;;5068143;28;19920;-64
2022/02/12 06:45:10;;;;;;;;;;;;;;;;;;5067426;28;19908;-64
2022/02/12 06:47:36;;;;;;;;;;;;;;;;;;5068053;28;19966;-66
2022/02/12 06:50:02;;;;;;;;;;;;;;;;;;5068672;28;19951;-65
2022/02/12 06:52:28;;;;;;;;;;;;;;;;;;5068238;28;19912;-64
2022/02/12 06:54:56;;;;;;;;;;;;;;;;;;5068550;28;19919;-66
2022/02/12 06:57:21;;;;;;;;;;;;;;;;;;5067906;28;20466;-66
2022/02/12 06:59:48;;;;;;;;;;;;;;;;;;5070169;28;20007;-66
2022/02/12 07:02:13;;;;;;;;;;;;;;;;;;5069672;28;20383;-66
2022/02/12 07:04:39;;;;;;;;;;;;;;;;;;5068571;28;19920;-67
2022/02/12 07:07:05;;;;;;;;;;;;;;;;;;5067884;28;19916;-64
2022/02/12 07:09:31;;;;;;;;;;;;;;;;;;5065788;28;19912;-63
2022/02/12 07:11:57;;;;;;;;;;;;;;;;;;5066203;28;20382;-65
2022/02/12 07:14:24;;;;;;;;;;;;;;;;;;5067816;28;19963;-66
2022/02/12 07:16:51;;;;;;;;;;;;;;;;;;5066906;28;19908;-65
2022/02/12 07:19:17;;;;;;;;;;;;;;;;;;5066748;28;19944;-67
2022/02/12 07:21:43;;;;;;;;;;;;;;;;;;5066032;28;19966;-64
2022/02/12 07:24:08;;;;;;;;;;;;;;;;;;5066840;28;20445;-64
2022/02/12 07:26:34;;;;;;;;;;;;;;;;;;5067728;28;19916;-64
2022/02/12 07:29:00;;;;;;;;;;;;;;;;;;5066282;28;19908;-66
2022/02/12 07:31:26;;;;;;;;;;;;;;;;;;5066846;28;19915;-69
2022/02/12 07:33:52;;;;;;;;;;;;;;;;;;5066944;28;19991;-66
2022/02/12 07:36:18;;;;;;;;;;;;;;;;;;5066406;28;20398;-64
2022/02/12 07:38:44;;;;;;;;;;;;;;;;;;5067402;28;19915;-64
2022/02/12 07:41:12;;;;;;;;;;;;;;;;;;5066130;28;19999;-65
2022/02/12 07:43:38;;;;;;;;;;;;;;;;;;5066504;28;19924;-65
2022/02/12 07:46:04;;;;;;;;;;;;;;;;;;5065591;28;19916;-61
2022/02/12 07:48:30;;;;;;;;;;;;;;;;;;5066625;28;19908;-69
2022/02/12 07:50:55;;;;;;;;;;;;;;;;;;5065904;28;19908;-67
2022/02/12 07:53:21;;;;;;;;;;;;;;;;;;5067095;28;20178;-69
2022/02/12 07:55:47;;;;;;;;;;;;;;;;;;5065487;28;19908;-69
2022/02/12 07:58:13;;;;;;;;;;;;;;;;;;5066301;28;20352;-69
2022/02/12 08:00:39;;;;;;;;;;;;;;;;;;5065289;28;19913;-68
2022/02/12 08:03:05;;;;;;;;;;;;;;;;;;5064793;28;19912;-67
2022/02/12 08:05:31;;;;;;;;;;;;;;;;;;5065912;28;20481;-69
2022/02/12 08:07:57;;;;;;;;;;;;;;;;;;5064053;28;20496;-71
2022/02/12 08:13:07;;;;;;;;;;;;;;;;;;5064835;28;19916;-69
2022/02/12 08:15:33;;;;;;;;;;;;;;;;;;5063467;28;20314;-69
2022/02/12 08:17:59;;;;;;;;;;;;;;;;;;5065310;28;19915;-65
2022/02/12 08:20:25;;;;;;;;;;;;;;;;;;5066146;28;19950;-71
2022/02/12 08:22:51;;;;;;;;;;;;;;;;;;5064211;28;19969;-67
2022/02/12 08:25:17;;;;;;;;;;;;;;;;;;5068791;28;19912;-68
2022/02/12 08:27:43;;;;;;;;;;;;;;;;;;5068993;28;19962;-71
2022/02/12 08:30:08;;;;;;;;;;;;;;;;;;5068221;28;19917;-71
2022/02/12 08:32:34;;;;;;;;;;;;;;;;;;5055612;28;19976;-70
2022/02/12 08:35:00;;;;;;;;;;;;;;;;;;5058687;28;20430;-68
2022/02/12 08:37:27;;;;;;;;;;;;;;;;;;5059201;28;20376;-68
2022/02/12 08:39:52;;;;;;;;;;;;;;;;;;5064734;28;19931;-68
2022/02/12 08:42:20;;;;;;;;;;;;;;;;;;5052855;28;19908;-68
2022/02/12 08:44:46;;;;;;;;;;;;;;;;;;5067549;28;19916;-65
2022/02/12 08:47:12;;;;;;;;;;;;;;;;;;5070178;28;19920;-66
2022/02/12 08:49:38;;;;;;;;;;;;;;;;;;5069713;28;19912;-66
2022/02/12 08:52:04;;;;;;;;;;;;;;;;;;5066230;28;19998;-66
2022/02/12 08:54:29;;;;;;;;;;;;;;;;;;5053585;28;19909;-66
2022/02/12 08:56:56;;;;;;;;;;;;;;;;;;5067826;28;19912;-67
2022/02/12 08:59:22;;;;;;;;;;;;;;;;;;5056547;28;19955;-66
2022/02/12 09:01:49;;;;;;;;;;;;;;;;;;5056578;28;19905;-66
2022/02/12 09:04:15;;;;;;;;;;;;;;;;;;5069529;28;19908;-66
2022/02/12 09:06:41;;;;;;;;;;;;;;;;;;5082962;28;20327;-66
2022/02/12 09:09:10;;;;;;;;;;;;;;;;;;5086362;28;20263;-66
2022/02/12 09:11:36;;;;;;;;;;;;;;;;;;5089597;28;19904;-67
2022/02/12 09:14:02;;;;;;;;;;;;;;;;;;5083557;28;19908;-66
2022/02/12 09:16:28;;;;;;;;;;;;;;;;;;5081565;28;19908;-66
2022/02/12 09:18:54;;;;;;;;;;;;;;;;;;5081835;28;19904;-67
2022/02/12 09:21:20;;;;;;;;;;;;;;;;;;5081825;28;20289;-67
2022/02/12 09:23:46;;;;;;;;;;;;;;;;;;5088594;28;20351;-67
2022/02/12 09:26:11;;;;;;;;;;;;;;;;;;5083703;28;19981;-67
2022/02/12 09:28:37;;;;;;;;;;;;;;;;;;5079769;28;20010;-67
2022/02/12 09:31:03;;;;;;;;;;;;;;;;;;5073352;28;19918;-66
2022/02/12 09:33:29;;;;;;;;;;;;;;;;;;5082333;28;19975;-66
2022/02/12 09:35:56;;;;;;;;;;;;;;;;;;5087060;28;19904;-69
2022/02/12 09:38:22;;;;;;;;;;;;;;;;;;5085336;28;19908;-67
2022/02/12 09:40:48;;;;;;;;;;;;;;;;;;5083018;28;19908;-67
2022/02/12 09:43:14;;;;;;;;;;;;;;;;;;5082607;28;19907;-67
2022/02/12 09:45:39;;;;;;;;;;;;;;;;;;5082446;28;19911;-67
2022/02/12 09:48:05;;;;;;;;;;;;;;;;;;5084657;28;19980;-67
2022/02/12 09:50:31;;;;;;;;;;;;;;;;;;5087614;28;19995;-67
2022/02/12 09:52:57;;;;;;;;;;;;;;;;;;5082157;28;19912;-67
2022/02/12 09:55:23;;;;;;;;;;;;;;;;;;5082147;28;19908;-67
2022/02/12 09:57:49;;;;;;;;;;;;;;;;;;5082754;28;20403;-67
2022/02/12 10:00:15;;;;;;;;;;;;;;;;;;5082467;28;19912;-68
2022/02/12 10:02:41;;;;;;;;;;;;;;;;;;5090255;28;19981;-67
2022/02/12 10:05:07;;;;;;;;;;;;;;;;;;5082247;28;20382;-67
2022/02/12 10:07:33;;;;;;;;;;;;;;;;;;5081576;28;19916;-67
2022/02/12 10:09:59;;;;;;;;;;;;;;;;;;5081413;28;19912;-67
2022/02/12 10:12:25;;;;;;;;;;;;;;;;;;5081633;28;20046;-67
2022/02/12 10:14:50;;;;;;;;;;;;;;;;;;5087637;28;19918;-67
2022/02/12 10:17:20;;;;;;;;;;;;;;;;;;5083700;28;19978;-66
2022/02/12 10:19:47;;;;;;;;;;;;;;;;;;5081859;28;20007;-67
2022/02/12 10:22:14;;;;;;;;;;;;;;;;;;5081444;28;20007;-67
2022/02/12 10:24:40;;;;;;;;;;;;;;;;;;5081869;28;20041;-67
2022/02/12 10:27:06;;;;;;;;;;;;;;;;;;5084903;28;20393;-66
2022/02/12 10:29:31;;;;;;;;;;;;;;;;;;5076975;28;19913;-67
2022/02/12 10:31:57;;;;;;;;;;;;;;;;;;5080139;28;19978;-68
2022/02/12 10:34:23;;;;;;;;;;;;;;;;;;5082065;28;19966;-68
2022/02/12 10:36:49;;;;;;;;;;;;;;;;;;5081990;28;19915;-68
2022/02/12 10:39:15;;;;;;;;;;;;;;;;;;5082662;28;19908;-66
2022/02/12 10:41:41;;;;;;;;;;;;;;;;;;5089031;28;19911;-67
2022/02/12 10:44:07;;;;;;;;;;;;;;;;;;5081090;28;19908;-66
2022/02/12 10:46:32;;;;;;;;;;;;;;;;;;5081594;28;19955;-66
2022/02/12 10:48:58;;;;;;;;;;;;;;;;;;5082221;28;19947;-66
2022/02/12 10:51:24;;;;;;;;;;;;;;;;;;5081435;28;20273;-66
2022/02/12 10:53:50;;;;;;;;;;;;;;;;;;5088603;28;20367;-65
2022/02/12 10:56:16;;;;;;;;;;;;;;;;;;5083402;28;19904;-66
2022/02/12 10:58:42;;;;;;;;;;;;;;;;;;5069266;28;19908;-65
2022/02/12 11:01:08;;;;;;;;;;;;;;;;;;5067898;28;19954;-66
2022/02/12 11:03:34;;;;;;;;;;;;;;;;;;5067168;28;20432;-66
2022/02/12 11:06:00;;;;;;;;;;;;;;;;;;5067318;28;19916;-60
2022/02/12 11:08:26;;;;;;;;;;;;;;;;;;5068281;28;20350;-61
2022/02/12 11:10:51;;;;;;;;;;;;;;;;;;5065782;28;19916;-62
2022/02/12 11:13:17;;;;;;;;;;;;;;;;;;5067190;28;19958;-61
2022/02/12 11:15:43;;;;;;;;;;;;;;;;;;5068301;28;19915;-60
2022/02/12 11:18:10;;;;;;;;;;;;;;;;;;5066226;28;19924;-61
2022/02/12 11:20:36;;;;;;;;;;;;;;;;;;5070329;28;19948;-62
2022/02/12 11:23:02;;;;;;;;;;;;;;;;;;5067803;28;19971;-61
2022/02/12 11:25:28;;;;;;;;;;;;;;;;;;5067840;28;19919;-67
2022/02/12 11:27:54;;;;;;;;;;;;;;;;;;5067906;28;20560;-61
2022/02/12 11:30:19;;;;;;;;;;;;;;;;;;5065752;28;19912;-62
2022/02/12 11:32:45;;;;;;;;;;;;;;;;;;5068898;28;20113;-63
2022/02/12 11:35:11;;;;;;;;;;;;;;;;;;5067870;28;20252;-62
2022/02/12 11:37:38;;;;;;;;;;;;;;;;;;5068187;28;19919;-65
2022/02/12 11:40:04;;;;;;;;;;;;;;;;;;5065547;28;19908;-60
2022/02/12 11:42:30;;;;;;;;;;;;;;;;;;5066949;28;20449;-60
2022/02/12 11:44:56;;;;;;;;;;;;;;;;;;5067011;28;19943;-64
2022/02/12 11:47:23;;;;;;;;;;;;;;;;;;5068854;28;20407;-65
2022/02/12 11:49:49;;;;;;;;;;;;;;;;;;5069235;28;19916;-64
2022/02/12 11:52:15;;;;;;;;;;;;;;;;;;5067170;28;19916;-65
2022/02/12 11:54:40;;;;;;;;;;;;;;;;;;5067799;28;19923;-66
2022/02/12 11:57:06;;;;;;;;;;;;;;;;;;5066461;28;20011;-66
2022/02/12 11:59:32;;;;;;;;;;;;;;;;;;5071774;28;19931;-67
2022/02/12 12:01:58;;;;;;;;;;;;;;;;;;5071833;28;20356;-67
2022/02/12 12:04:30;;;;;;;;;;;;;;;;;;5071958;28;19944;-62
2022/02/12 12:06:56;;;;;;;;;;;;;;;;;;5071864;28;19924;-63
2022/02/12 12:09:22;;;;;;;;;;;;;;;;;;5069197;28;20038;-62
2022/02/12 12:11:48;;;;;;;;;;;;;;;;;;5071578;28;20457;-62
2022/02/12 12:14:13;;;;;;;;;;;;;;;;;;5084458;28;19915;-62
2022/02/12 12:16:39;;;;;;;;;;;;;;;;;;5069751;28;19948;-63
2022/02/12 12:19:05;;;;;;;;;;;;;;;;;;5070726;28;19909;-61
2022/02/12 12:21:31;;;;;;;;;;;;;;;;;;5071069;28;19989;-62
2022/02/12 12:23:57;;;;;;;;;;;;;;;;;;5070649;28;20327;-67
2022/02/12 12:26:27;;;;;;;;;;;;;;;;;;5084790;28;19912;-64
2022/02/12 12:31:38;;;;;;;;;;;;;;;;;;5080395;28;19954;-65
2022/02/12 12:34:03;;;;;;;;;;;;;;;;;;5076794;28;19947;-63
2022/02/12 12:36:29;;;;;;;;;;;;;;;;;;5070875;28;20383;-66
2022/02/12 12:38:55;;;;;;;;;;;;;;;;;;5071664;28;19910;-66
2022/02/12 12:41:21;;;;;;;;;;;;;;;;;;5074046;28;19908;-67
2022/02/12 12:43:47;;;;;;;;;;;;;;;;;;5072022;28;19908;-62
2022/02/12 12:46:13;;;;;;;;;;;;;;;;;;5076034;28;20409;-66
2022/02/12 12:48:39;;;;;;;;;;;;;;;;;;5078377;28;20301;-67
2022/02/12 12:51:05;;;;;;;;;;;;;;;;;;5070997;28;19905;-66
2022/02/12 12:53:32;;;;;;;;;;;;;;;;;;5074109;28;19914;-66
2022/02/12 12:55:58;;;;;;;;;;;;;;;;;;5081039;28;20007;-67
2022/02/12 12:58:24;;;;;;;;;;;;;;;;;;5082469;28;20002;-66
2022/02/12 13:00:50;;;;;;;;;;;;;;;;;;5080003;28;20403;-65
2022/02/12 13:03:15;;;;;;;;;;;;;;;;;;5067271;28;19909;-67
2022/02/12 13:05:41;;;;;;;;;;;;;;;;;;5063114;28;20005;-68
2022/02/12 13:08:08;;;;;;;;;;;;;;;;;;5063731;28;20003;-66
2022/02/12 13:10:33;;;;;;;;;;;;;;;;;;5060987;28;20322;-65
2022/02/12 13:12:59;;;;;;;;;;;;;;;;;;5055711;28;19912;-65
2022/02/12 13:15:28;;;;;;;;;;;;;;;;;;5052882;28;19932;-65
2022/02/12 13:17:54;;;;;;;;;;;;;;;;;;5069944;28;19930;-66
2022/02/12 13:20:20;;;;;;;;;;;;;;;;;;5060305;28;20359;-65
2022/02/12 13:22:46;;;;;;;;;;;;;;;;;;5058454;28;20371;-66
2022/02/12 13:25:12;;;;;;;;;;;;;;;;;;5057272;28;19912;-66
2022/02/12 13:27:38;;;;;;;;;;;;;;;;;;5067268;28;19931;-65
2022/02/12 13:30:05;;;;;;;;;;;;;;;;;;5064952;28;19948;-63
2022/02/12 13:32:31;;;;;;;;;;;;;;;;;;5054863;28;19998;-62
2022/02/12 13:34:57;;;;;;;;;;;;;;;;;;5059702;28;19916;-62
2022/02/12 13:37:22;;;;;;;;;;;;;;;;;;5058141;28;19923;-67
2022/02/12 13:39:48;;;;;;;;;;;;;;;;;;5052994;28;19914;-64
2022/02/12 13:42:14;;;;;;;;;;;;;;;;;;5051349;28;19916;-63
2022/02/12 13:44:40;;;;;;;;;;;;;;;;;;5053751;28;19905;-65
2022/02/12 13:47:07;;;;;;;;;;;;;;;;;;5064094;28;19916;-64
2022/02/12 13:49:33;;;;;;;;;;;;;;;;;;5060401;28;20304;-68
2022/02/12 13:51:59;;;;;;;;;;;;;;;;;;5054929;28;19915;-61
2022/02/12 13:54:25;;;;;;;;;;;;;;;;;;5050655;28;19958;-67
2022/02/12 13:56:53;;;;;;;;;;;;;;;;;;5053637;28;20388;-62
2022/02/12 13:59:19;;;;;;;;;;;;;;;;;;5064058;28;20303;-63
2022/02/12 14:01:45;;;;;;;;;;;;;;;;;;5061953;28;19908;-64
2022/02/12 14:04:12;;;;;;;;;;;;;;;;;;5066486;28;19916;-65
2022/02/12 14:06:37;;;;;;;;;;;;;;;;;;5064439;28;20639;-65
2022/02/12 14:09:03;;;;;;;;;;;;;;;;;;5067160;28;19963;-67
2022/02/12 14:11:29;;;;;;;;;;;;;;;;;;5054093;28;19905;-64
2022/02/12 14:13:55;;;;;;;;;;;;;;;;;;5054295;28;19909;-63
2022/02/12 14:16:21;;;;;;;;;;;;;;;;;;5053374;28;20356;-66
2022/02/12 14:18:47;;;;;;;;;;;;;;;;;;5053566;28;19977;-67
2022/02/12 14:21:13;;;;;;;;;;;;;;;;;;5066599;28;20391;-67
2022/02/12 14:23:39;;;;;;;;;;;;;;;;;;5064776;28;19948;-64
2022/02/12 14:26:05;;;;;;;;;;;;;;;;;;5060164;28;19916;-65
2022/02/12 14:28:31;;;;;;;;;;;;;;;;;;5060729;28;19939;-65
2022/02/12 14:30:57;;;;;;;;;;;;;;;;;;5059161;28;20307;-66
2022/02/12 14:33:23;;;;;;;;;;;;;;;;;;5045451;28;19924;-64
2022/02/12 14:35:49;;;;;;;;;;;;;;;;;;5047137;28;19904;-64
2022/02/12 14:38:15;;;;;;;;;;;;;;;;;;5048915;28;19908;-63
2022/02/12 14:40:41;;;;;;;;;;;;;;;;;;5051777;28;19962;-67
2022/02/12 14:43:07;;;;;;;;;;;;;;;;;;5054968;28;19979;-66
2022/02/12 14:45:33;;;;;;;;;;;;;;;;;;5064904;28;19912;-66
2022/02/12 14:47:59;;;;;;;;;;;;;;;;;;5067161;28;19912;-70
2022/02/12 14:50:25;;;;;;;;;;;;;;;;;;5082720;28;19931;-63
2022/02/12 14:52:51;;;;;;;;;;;;;;;;;;5064564;28;19908;-66
2022/02/12 14:55:17;;;;;;;;;;;;;;;;;;5063973;28;19916;-67
2022/02/12 14:57:43;;;;;;;;;;;;;;;;;;5065376;28;20774;-66
2022/02/12 15:00:10;;;;;;;;;;;;;;;;;;5065976;28;19951;-68
2022/02/12 15:02:38;;;;;;;;;;;;;;;;;;5067144;28;19911;-66
2022/02/12 15:05:03;;;;;;;;;;;;;;;;;;5064595;28;19914;-67
2022/02/12 15:07:30;;;;;;;;;;;;;;;;;;5061736;28;19916;-68
2022/02/12 15:09:56;;;;;;;;;;;;;;;;;;5063555;28;19916;-66
2022/02/12 15:12:22;;;;;;;;;;;;;;;;;;5063414;28;20002;-66
2022/02/12 15:14:48;;;;;;;;;;;;;;;;;;5066920;28;20015;-66
2022/02/12 15:17:13;;;;;;;;;;;;;;;;;;5064267;28;20395;-64
2022/02/12 15:19:39;;;;;;;;;;;;;;;;;;5063687;28;19909;-70
2022/02/12 15:22:05;;;;;;;;;;;;;;;;;;5063462;28;20326;-65
2022/02/12 15:24:31;;;;;;;;;;;;;;;;;;5062728;28;19909;-66
2022/02/12 15:26:57;;;;;;;;;;;;;;;;;;5065617;28;19962;-69
2022/02/12 15:29:23;;;;;;;;;;;;;;;;;;5063921;28;19983;-70
2022/02/12 15:31:49;;;;;;;;;;;;;;;;;;5064718;28;19951;-71
2022/02/12 15:34:15;;;;;;;;;;;;;;;;;;5062147;28;19919;-71
2022/02/12 15:36:44;;;;;;;;;;;;;;;;;;5061277;28;20339;-71
2022/02/12 15:39:10;;;;;;;;;;;;;;;;;;5065073;28;19956;-71
2022/02/12 15:41:36;;;;;;;;;;;;;;;;;;5068393;28;19951;-71
2022/02/12 15:44:03;;;;;;;;;;;;;;;;;;5064797;28;19924;-71
2022/02/12 15:46:28;;;;;;;;;;;;;;;;;;5066725;28;19921;-71
2022/02/12 15:48:54;;;;;;;;;;;;;;;;;;5065175;28;20321;-72
2022/02/12 15:51:20;;;;;;;;;;;;;;;;;;5066069;28;19913;-71
2022/02/12 15:53:46;;;;;;;;;;;;;;;;;;5069248;28;19908;-71
2022/02/12 15:56:12;;;;;;;;;;;;;;;;;;5066393;28;19943;-74
2022/02/12 15:58:38;;;;;;;;;;;;;;;;;;5067016;28;20288;-72
2022/02/12 16:01:04;;;;;;;;;;;;;;;;;;5066843;28;20019;-72
2022/02/12 16:03:30;;;;;;;;;;;;;;;;;;5070148;28;19914;-72
2022/02/12 16:05:55;;;;;;;;;;;;;;;;;;5072057;28;20473;-71
2022/02/12 16:08:21;;;;;;;;;;;;;;;;;;5068577;28;19950;-72
2022/02/12 16:10:47;;;;;;;;;;;;;;;;;;5069044;28;20539;-71
2022/02/12 16:13:13;;;;;;;;;;;;;;;;;;5069470;28;19947;-71
2022/02/12 16:15:41;;;;;;;;;;;;;;;;;;5073551;28;20325;-72
2022/02/12 16:18:07;;;;;;;;;;;;;;;;;;5071265;28;19916;-71
2022/02/12 16:20:33;;;;;;;;;;;;;;;;;;5075878;28;20379;-73
2022/02/12 16:22:59;;;;;;;;;;;;;;;;;;5073618;28;19920;-70
2022/02/12 16:25:30;;;;;;;;;;;;;;;;;;5073896;28;19912;-70
2022/02/12 16:27:56;;;;;;;;;;;;;;;;;;5073669;28;19923;-70
2022/02/12 16:30:22;;;;;;;;;;;;;;;;;;5072062;28;19917;-70
2022/02/12 16:32:48;;;;;;;;;;;;;;;;;;5081804;28;20248;-69
2022/02/12 16:35:14;;;;;;;;;;;;;;;;;;5074532;28;20383;-71
2022/02/12 16:37:40;;;;;;;;;;;;;;;;;;5076836;28;20019;-70
2022/02/12 16:40:07;;;;;;;;;;;;;;;;;;5074800;28;19919;-71
2022/02/12 16:42:33;;;;;;;;;;;;;;;;;;5070857;28;19908;-71
2022/02/12 16:44:59;;;;;;;;;;;;;;;;;;5071649;28;19914;-70
2022/02/12 16:47:25;;;;;;;;;;;;;;;;;;5074234;28;19924;-71